Time;durP1;ratioP1;P1;durP2;ratioP2;P2;SDS_P1;SDS_P2;PMS_P1;PMS_P2;Temp;Humidity;BMP_temperature;BMP_pressure;BME280_temperature;BME280_humidity;BME280_pressure;Samples;Min_cycle;Max_cycle;Signal;HPM_P1;HPM_P2
2021/08/31 00:00:38;;;;;;;1.43;1.37;;;16.10;98.00;;;;;;5051556;28;20979;-72
2021/08/31 00:03:05;;;;;;;1.47;1.43;;;16.20;98.00;;;;;;5051660;28;20530;-71
2021/08/31 00:05:32;;;;;;;2.57;1.63;;;16.20;98.00;;;;;;5051492;28;20480;-72
2021/08/31 00:07:59;;;;;;;1.80;1.40;;;16.20;98.00;;;;;;5051646;28;20501;-71
2021/08/31 00:10:28;;;;;;;1.93;1.50;;;16.20;98.00;;;;;;5051527;28;20498;-71
2021/08/31 00:12:57;;;;;;;1.90;1.50;;;16.10;98.00;;;;;;5050486;28;20973;-71
2021/08/31 00:15:24;;;;;;;1.23;1.20;;;16.00;98.00;;;;;;5051366;28;20505;-71
2021/08/31 00:17:51;;;;;;;1.67;1.43;;;15.90;98.00;;;;;;5054492;28;20967;-71
2021/08/31 00:20:18;;;;;;;1.67;1.50;;;16.10;98.00;;;;;;5055522;28;21021;-72
2021/08/31 00:22:45;;;;;;;1.10;1.07;;;16.20;98.00;;;;;;5055574;28;20504;-71
2021/08/31 00:25:12;;;;;;;2.53;1.80;;;16.20;98.00;;;;;;5055505;28;21159;-71
2021/08/31 00:27:42;;;;;;;2.33;1.67;;;16.20;98.00;;;;;;5055512;28;21004;-73
2021/08/31 00:30:12;;;;;;;1.60;1.50;;;16.20;98.00;;;;;;5054276;28;20457;-72
2021/08/31 00:32:39;;;;;;;2.17;1.30;;;16.30;98.00;;;;;;5055133;28;20570;-71
2021/08/31 00:35:06;;;;;;;1.90;1.50;;;16.30;98.00;;;;;;5054728;28;20492;-71
2021/08/31 00:37:35;;;;;;;2.03;1.67;;;16.30;98.00;;;;;;5055513;28;20454;-72
2021/08/31 00:40:02;;;;;;;1.73;1.20;;;16.20;98.00;;;;;;5054299;28;20532;-71
2021/08/31 00:42:29;;;;;;;1.20;1.10;;;16.10;98.00;;;;;;5055304;28;20492;-72
2021/08/31 00:44:56;;;;;;;1.60;1.60;;;16.00;98.00;;;;;;5055343;28;21098;-70
2021/08/31 00:47:25;;;;;;;2.00;1.70;;;16.00;98.00;;;;;;5055335;28;20895;-71
2021/08/31 00:49:52;;;;;;;2.50;1.60;;;16.00;98.00;;;;;;5055061;28;20866;-71
2021/08/31 00:52:19;;;;;;;1.57;1.10;;;15.90;98.00;;;;;;5054960;28;20500;-71
2021/08/31 00:54:46;;;;;;;1.50;1.30;;;15.90;98.00;;;;;;5054582;28;20579;-71
2021/08/31 00:57:15;;;;;;;2.90;1.53;;;15.80;98.00;;;;;;5054981;28;20457;-72
2021/08/31 00:59:42;;;;;;;1.87;1.57;;;15.90;98.00;;;;;;5054890;28;20477;-73
2021/08/31 01:02:09;;;;;;;2.13;1.63;;;15.90;98.00;;;;;;5053385;28;20507;-71
2021/08/31 01:04:38;;;;;;;1.40;1.27;;;15.90;98.00;;;;;;5054588;28;20515;-71
2021/08/31 01:07:05;;;;;;;1.60;1.50;;;15.90;98.00;;;;;;5054871;28;21136;-71
2021/08/31 01:09:35;;;;;;;1.40;1.30;;;15.90;98.00;;;;;;5054634;28;20511;-71
2021/08/31 01:12:02;;;;;;;1.30;1.30;;;15.90;98.00;;;;;;5054573;28;20536;-70
2021/08/31 01:14:30;;;;;;;1.53;1.40;;;15.90;98.00;;;;;;5054475;28;20523;-72
2021/08/31 01:16:57;;;;;;;1.40;1.30;;;15.90;98.00;;;;;;5054611;28;20500;-71
2021/08/31 01:19:29;;;;;;;1.57;1.40;;;15.90;98.00;;;;;;5054276;28;20485;-71
2021/08/31 01:21:59;;;;;;;1.57;1.57;;;16.00;98.00;;;;;;5054496;28;20944;-72
2021/08/31 01:24:27;;;;;;;2.27;1.50;;;16.00;98.00;;;;;;5054430;28;20453;-72
2021/08/31 01:26:57;;;;;;;2.50;1.57;;;15.90;98.00;;;;;;5054091;28;20456;-72
2021/08/31 01:29:24;;;;;;;1.57;1.50;;;15.80;98.00;;;;;;5054203;28;20944;-72
2021/08/31 01:31:51;;;;;;;3.13;1.80;;;15.70;98.00;;;;;;5054235;28;20515;-71
2021/08/31 01:34:18;;;;;;;1.30;1.30;;;15.70;98.00;;;;;;5052665;28;20480;-71
2021/08/31 01:36:45;;;;;;;2.20;1.77;;;15.60;98.00;;;;;;5054105;28;20940;-70
2021/08/31 01:39:12;;;;;;;1.73;1.30;;;15.60;98.00;;;;;;5054121;28;20500;-72
2021/08/31 01:41:40;;;;;;;1.50;1.40;;;15.60;98.00;;;;;;5054013;28;20495;-72
2021/08/31 01:44:08;;;;;;;1.60;1.33;;;15.60;98.00;;;;;;5053713;28;20456;-71
2021/08/31 01:46:35;;;;;;;1.40;1.40;;;15.50;98.00;;;;;;5054073;28;20456;-73
2021/08/31 01:49:02;;;;;;;1.47;1.47;;;15.50;98.00;;;;;;5054002;28;20948;-70
2021/08/31 01:51:29;;;;;;;1.80;1.47;;;15.50;98.00;;;;;;5054035;28;20920;-72
2021/08/31 01:53:56;;;;;;;1.47;1.40;;;15.50;98.00;;;;;;5053720;28;20518;-70
2021/08/31 01:56:23;;;;;;;1.70;1.20;;;15.50;98.00;;;;;;5053965;28;20838;-71
2021/08/31 01:58:50;;;;;;;1.50;1.37;;;15.60;98.00;;;;;;5053862;28;20460;-71
2021/08/31 02:01:19;;;;;;;1.40;1.30;;;15.60;98.00;;;;;;5053910;28;20514;-71
2021/08/31 02:03:46;;;;;;;1.43;1.40;;;15.80;98.00;;;;;;5053657;28;20461;-70
2021/08/31 02:06:13;;;;;;;1.90;1.40;;;15.80;98.00;;;;;;5054028;28;20499;-73
2021/08/31 02:08:40;;;;;;;2.80;1.70;;;15.90;98.00;;;;;;5053638;28;20493;-70
2021/08/31 02:11:07;;;;;;;1.30;1.10;;;15.90;98.00;;;;;;5053666;28;20555;-71
2021/08/31 02:13:34;;;;;;;2.30;1.60;;;15.90;98.00;;;;;;5053510;28;20506;-71
2021/08/31 02:16:01;;;;;;;1.43;1.40;;;15.80;98.00;;;;;;5053181;28;20579;-71
2021/08/31 02:18:30;;;;;;;1.20;1.10;;;15.80;98.00;;;;;;5053393;28;20492;-70
2021/08/31 02:20:57;;;;;;;2.80;1.30;;;15.90;98.00;;;;;;5053343;28;20504;-71
2021/08/31 02:23:24;;;;;;;1.70;1.40;;;15.80;98.00;;;;;;5053219;28;20488;-72
2021/08/31 02:25:51;;;;;;;1.90;1.50;;;15.80;98.00;;;;;;5053115;28;20543;-71
2021/08/31 02:28:18;;;;;;;1.67;1.30;;;15.80;98.00;;;;;;5053430;28;20544;-71
2021/08/31 02:30:45;;;;;;;1.67;1.40;;;15.90;98.00;;;;;;5053034;28;20495;-70
2021/08/31 02:33:12;;;;;;;1.90;1.73;;;15.90;98.00;;;;;;5052812;28;20477;-72
2021/08/31 02:35:42;;;;;;;1.40;1.33;;;15.90;98.00;;;;;;5053048;28;20855;-72
2021/08/31 02:38:09;;;;;;;4.73;1.47;;;15.90;98.00;;;;;;5053018;28;20518;-71
2021/08/31 02:40:36;;;;;;;1.80;1.70;;;15.90;98.00;;;;;;5052379;28;20528;-72
2021/08/31 02:43:03;;;;;;;1.73;1.30;;;15.90;98.00;;;;;;5052908;28;20491;-71
2021/08/31 02:45:30;;;;;;;2.60;1.97;;;15.80;98.00;;;;;;5052882;28;20461;-72
2021/08/31 02:47:57;;;;;;;2.07;1.67;;;15.80;98.00;;;;;;5052774;28;20979;-73
2021/08/31 02:50:24;;;;;;;1.53;1.50;;;15.80;98.00;;;;;;5052591;28;20500;-72
2021/08/31 02:52:52;;;;;;;1.60;1.57;;;15.80;98.00;;;;;;5052642;28;20457;-73
2021/08/31 02:55:19;;;;;;;1.40;1.40;;;15.60;98.00;;;;;;5052471;28;20533;-71
2021/08/31 02:57:47;;;;;;;3.00;2.40;;;15.60;98.00;;;;;;5052551;28;20997;-71
2021/08/31 03:00:18;;;;;;;1.87;1.57;;;15.50;98.00;;;;;;5052617;28;20531;-71
2021/08/31 03:02:45;;;;;;;1.70;1.60;;;15.50;98.00;;;;;;5052556;28;20458;-71
2021/08/31 03:05:13;;;;;;;1.37;1.33;;;15.50;98.00;;;;;;5052521;28;20510;-72
2021/08/31 03:07:40;;;;;;;2.10;1.60;;;15.40;98.00;;;;;;5051341;28;20460;-70
2021/08/31 03:10:09;;;;;;;2.33;2.17;;;15.30;98.00;;;;;;5051007;28;20519;-72
2021/08/31 03:12:36;;;;;;;1.70;1.27;;;15.20;98.00;;;;;;5052450;28;20488;-72
2021/08/31 03:15:04;;;;;;;1.83;1.50;;;15.30;98.00;;;;;;5052211;28;20521;-72
2021/08/31 03:17:31;;;;;;;3.57;1.80;;;15.30;98.00;;;;;;5052398;28;20510;-72
2021/08/31 03:19:58;;;;;;;1.40;1.33;;;15.30;98.00;;;;;;5052380;28;20542;-70
2021/08/31 03:22:25;;;;;;;2.00;1.63;;;15.30;98.00;;;;;;5051275;28;20492;-71
2021/08/31 03:24:52;;;;;;;1.50;1.43;;;15.40;98.00;;;;;;5052258;28;20544;-72
2021/08/31 03:27:20;;;;;;;5.63;1.57;;;15.50;98.00;;;;;;5052429;28;20460;-72
2021/08/31 03:29:47;;;;;;;1.60;1.40;;;15.60;98.00;;;;;;5052128;28;20456;-70
2021/08/31 03:32:14;;;;;;;1.40;1.30;;;15.50;98.00;;;;;;5051936;28;20488;-70
2021/08/31 03:34:41;;;;;;;1.20;1.20;;;15.50;98.00;;;;;;5051889;28;20572;-72
2021/08/31 03:37:10;;;;;;;1.57;1.30;;;15.50;98.00;;;;;;5051869;28;20493;-71
2021/08/31 03:39:37;;;;;;;1.63;1.50;;;15.60;98.00;;;;;;5052041;28;20464;-70
2021/08/31 03:42:04;;;;;;;1.80;1.50;;;15.50;98.00;;;;;;5051782;28;20495;-72
2021/08/31 03:44:33;;;;;;;1.70;1.40;;;15.60;98.00;;;;;;5051523;28;20534;-73
2021/08/31 03:47:00;;;;;;;1.50;1.37;;;15.50;98.00;;;;;;5051679;28;20464;-72
2021/08/31 03:49:27;;;;;;;2.53;2.33;;;15.50;98.00;;;;;;5051704;28;20460;-71
2021/08/31 03:51:54;;;;;;;1.67;1.37;;;15.50;98.00;;;;;;5050628;28;21063;-72
2021/08/31 03:54:21;;;;;;;1.30;1.20;;;15.60;98.00;;;;;;5050913;28;20462;-71
2021/08/31 03:56:50;;;;;;;1.77;1.47;;;15.50;98.00;;;;;;5051721;28;20538;-70
2021/08/31 03:59:17;;;;;;;1.23;1.20;;;15.50;98.00;;;;;;5051577;28;20456;-70
2021/08/31 04:01:46;;;;;;;1.77;1.40;;;15.50;98.00;;;;;;5051366;28;20969;-71
2021/08/31 04:04:13;;;;;;;1.97;1.70;;;15.50;98.00;;;;;;5051544;28;20522;-72
2021/08/31 04:06:40;;;;;;;1.53;1.50;;;15.60;98.00;;;;;;5051427;28;20455;-70
2021/08/31 04:09:07;;;;;;;1.77;1.40;;;15.70;98.00;;;;;;5051696;28;20472;-70
2021/08/31 04:11:34;;;;;;;3.07;1.73;;;15.70;98.00;;;;;;5051656;28;20452;-71
2021/08/31 04:14:01;;;;;;;3.33;1.80;;;15.60;98.00;;;;;;5051516;28;21095;-71
2021/08/31 04:16:28;;;;;;;2.03;1.47;;;15.50;98.00;;;;;;5051397;28;20571;-72
2021/08/31 04:18:56;;;;;;;3.13;1.60;;;15.50;98.00;;;;;;5051299;28;20556;-71
2021/08/31 04:21:23;;;;;;;1.70;1.40;;;15.40;98.00;;;;;;5051387;28;20485;-72
2021/08/31 04:23:51;;;;;;;3.20;1.97;;;15.40;98.00;;;;;;5051496;28;20495;-71
2021/08/31 04:26:18;;;;;;;1.60;1.13;;;15.50;98.00;;;;;;5050164;28;20514;-71
2021/08/31 04:28:45;;;;;;;2.40;1.43;;;15.50;98.00;;;;;;5051315;28;20926;-72
2021/08/31 04:31:13;;;;;;;1.77;1.67;;;15.50;98.00;;;;;;5051299;28;20990;-71
2021/08/31 04:33:40;;;;;;;1.73;1.30;;;15.60;98.00;;;;;;5050311;28;20492;-72
2021/08/31 04:36:08;;;;;;;2.27;1.43;;;15.50;98.00;;;;;;5051460;28;20560;-72
2021/08/31 04:38:35;;;;;;;2.07;1.30;;;15.50;98.00;;;;;;5051276;28;20505;-72
2021/08/31 04:41:02;;;;;;;2.87;1.70;;;15.40;98.00;;;;;;5050262;28;20934;-71
2021/08/31 04:43:29;;;;;;;1.93;1.43;;;15.40;98.00;;;;;;5051452;28;20453;-72
2021/08/31 04:45:57;;;;;;;1.10;1.00;;;15.50;98.00;;;;;;5051340;28;20507;-70
2021/08/31 04:48:23;;;;;;;1.70;1.43;;;15.50;98.00;;;;;;5051616;28;20539;-71
2021/08/31 04:50:51;;;;;;;1.43;1.33;;;15.50;98.00;;;;;;5051243;28;20461;-70
2021/08/31 04:53:22;;;;;;;1.20;1.20;;;15.60;98.00;;;;;;5049938;28;20488;-71
2021/08/31 04:55:49;;;;;;;1.70;1.50;;;15.50;98.00;;;;;;5051059;28;20510;-73
2021/08/31 04:58:16;;;;;;;4.30;1.93;;;15.50;98.00;;;;;;5050667;28;20495;-72
2021/08/31 05:00:43;;;;;;;1.53;1.23;;;15.50;98.00;;;;;;5049846;28;20914;-72
2021/08/31 05:03:10;;;;;;;2.70;1.67;;;15.50;98.00;;;;;;5053361;28;21023;-72
2021/08/31 05:05:37;;;;;;;3.33;1.87;;;15.40;98.00;;;;;;5053401;28;20448;-72
2021/08/31 05:08:05;;;;;;;1.80;1.60;;;15.40;98.00;;;;;;5054829;28;20457;-71
2021/08/31 05:10:33;;;;;;;2.20;1.40;;;15.40;98.00;;;;;;5054387;28;20504;-73
2021/08/31 05:13:00;;;;;;;1.77;1.40;;;15.50;98.00;;;;;;5054522;28;20884;-72
2021/08/31 05:15:27;;;;;;;3.30;1.50;;;15.40;98.00;;;;;;5054255;28;20561;-70
2021/08/31 05:17:55;;;;;;;1.50;1.47;;;15.60;98.00;;;;;;5054536;28;20460;-70
2021/08/31 05:20:25;;;;;;;1.53;1.50;;;15.70;98.00;;;;;;5054508;28;20483;-71
2021/08/31 05:22:53;;;;;;;1.83;1.50;;;15.70;98.00;;;;;;5054390;28;20479;-71
2021/08/31 05:25:20;;;;;;;1.43;1.20;;;15.80;98.00;;;;;;5054325;28;20509;-73
2021/08/31 05:27:49;;;;;;;1.33;1.20;;;15.70;98.00;;;;;;5054368;28;20540;-72
2021/08/31 05:30:16;;;;;;;2.20;1.57;;;15.70;98.00;;;;;;5054223;28;20461;-71
2021/08/31 05:32:43;;;;;;;1.77;1.50;;;15.70;98.00;;;;;;5053483;28;20512;-71
2021/08/31 05:35:11;;;;;;;1.37;1.33;;;15.60;98.00;;;;;;5053272;28;20453;-70
2021/08/31 05:37:38;;;;;;;2.50;1.93;;;15.70;98.00;;;;;;5053404;28;20484;-73
2021/08/31 05:40:07;;;;;;;2.07;1.80;;;15.80;98.00;;;;;;5053252;28;20514;-72
2021/08/31 05:42:34;;;;;;;1.40;1.33;;;15.80;98.00;;;;;;5054081;28;20453;-71
2021/08/31 05:45:02;;;;;;;1.47;1.30;;;15.90;98.00;;;;;;5054181;28;20493;-71
2021/08/31 05:47:29;;;;;;;1.67;1.33;;;15.90;98.00;;;;;;5054056;28;20484;-73
2021/08/31 05:49:56;;;;;;;1.87;1.40;;;16.00;98.00;;;;;;5053870;28;20892;-73
2021/08/31 05:52:23;;;;;;;1.87;1.70;;;16.00;98.00;;;;;;5054049;28;20598;-71
2021/08/31 05:54:51;;;;;;;1.63;1.40;;;16.00;98.00;;;;;;5053978;28;21060;-71
2021/08/31 05:57:18;;;;;;;1.30;1.20;;;15.90;98.00;;;;;;5053884;28;20520;-71
2021/08/31 05:59:45;;;;;;;1.90;1.70;;;15.90;98.00;;;;;;5053706;28;20460;-72
2021/08/31 06:02:13;;;;;;;2.20;1.60;;;15.80;98.00;;;;;;5053925;28;20561;-71
2021/08/31 06:04:40;;;;;;;1.83;1.47;;;15.70;98.00;;;;;;5053577;28;20493;-72
2021/08/31 06:07:08;;;;;;;1.30;1.23;;;15.60;98.00;;;;;;5053899;28;20523;-71
2021/08/31 06:09:37;;;;;;;2.20;1.80;;;15.60;98.00;;;;;;5053797;28;20821;-72
2021/08/31 06:12:05;;;;;;;1.60;1.23;;;15.60;98.00;;;;;;5054100;28;20464;-71
2021/08/31 06:14:32;;;;;;;2.93;1.70;;;15.60;98.00;;;;;;5052719;28;20460;-71
2021/08/31 06:16:59;;;;;;;2.00;1.30;;;15.50;98.00;;;;;;5053461;28;20559;-71
2021/08/31 06:19:27;;;;;;;1.93;1.30;;;15.70;98.00;;;;;;5053233;28;20911;-73
2021/08/31 06:21:55;;;;;;;1.77;1.33;;;15.90;98.00;;;;;;5053331;28;20514;-70
2021/08/31 06:24:22;;;;;;;2.07;1.70;;;16.00;98.00;;;;;;5053187;28;20522;-72
2021/08/31 06:26:49;;;;;;;1.37;1.37;;;16.00;98.00;;;;;;5052992;28;20480;-71
2021/08/31 06:29:16;;;;;;;2.33;1.40;;;16.20;98.00;;;;;;5053143;28;20850;-71
2021/08/31 06:31:43;;;;;;;2.73;1.80;;;16.30;98.00;;;;;;5053023;28;20462;-70
2021/08/31 06:34:10;;;;;;;1.40;1.30;;;16.30;98.00;;;;;;5052821;28;20453;-73
2021/08/31 06:36:38;;;;;;;1.47;1.40;;;16.50;98.00;;;;;;5052561;28;20572;-74
2021/08/31 06:39:06;;;;;;;1.73;1.47;;;16.40;98.00;;;;;;5052996;28;20454;-71
2021/08/31 06:41:33;;;;;;;1.50;1.20;;;16.40;98.00;;;;;;5052824;28;20460;-72
2021/08/31 06:44:00;;;;;;;1.97;1.77;;;16.20;98.00;;;;;;5053029;28;20548;-74
2021/08/31 06:46:27;;;;;;;1.37;1.33;;;16.30;98.00;;;;;;5052949;28;20445;-73
2021/08/31 06:48:54;;;;;;;1.70;1.43;;;16.40;98.00;;;;;;5053032;28;20481;-73
2021/08/31 06:51:21;;;;;;;1.83;1.63;;;16.30;98.00;;;;;;5052871;28;20476;-72
2021/08/31 06:53:49;;;;;;;1.53;1.30;;;16.20;98.00;;;;;;5052967;28;20458;-74
2021/08/31 06:56:16;;;;;;;2.23;1.63;;;16.00;98.00;;;;;;5052473;28;20523;-73
2021/08/31 06:58:43;;;;;;;1.87;1.53;;;16.00;98.00;;;;;;5052937;28;20569;-72
2021/08/31 07:01:10;;;;;;;2.20;1.60;;;16.10;98.00;;;;;;5052616;28;20491;-72
2021/08/31 07:03:37;;;;;;;2.93;1.67;;;16.10;98.00;;;;;;5052295;28;20500;-73
2021/08/31 07:06:04;;;;;;;1.43;1.27;;;16.10;98.00;;;;;;5052419;28;20453;-72
2021/08/31 07:08:31;;;;;;;1.37;1.33;;;16.10;98.00;;;;;;5052617;28;20518;-73
2021/08/31 07:10:59;;;;;;;1.60;1.30;;;16.20;98.00;;;;;;5052254;28;20493;-72
2021/08/31 07:13:26;;;;;;;3.70;1.83;;;16.30;98.00;;;;;;5052469;28;20490;-72
2021/08/31 07:15:53;;;;;;;1.43;1.23;;;16.20;98.00;;;;;;5052333;28;20531;-72
2021/08/31 07:18:20;;;;;;;2.07;1.43;;;16.20;98.00;;;;;;5052351;28;20492;-71
2021/08/31 07:20:47;;;;;;;1.97;1.63;;;16.20;98.00;;;;;;5052262;28;20958;-72
2021/08/31 07:23:14;;;;;;;3.20;1.47;;;16.30;98.00;;;;;;5051103;28;20830;-72
2021/08/31 07:25:42;;;;;;;1.70;1.47;;;16.30;98.00;;;;;;5044613;28;20458;-70
2021/08/31 07:28:17;;;;;;;1.57;1.17;;;16.30;98.00;;;;;;5045126;28;20537;-73
2021/08/31 07:30:44;;;;;;;1.97;1.80;;;16.50;98.00;;;;;;5038923;28;20488;-72
2021/08/31 07:33:11;;;;;;;2.60;1.93;;;16.60;98.00;;;;;;5033419;28;20505;-75
2021/08/31 07:35:39;;;;;;;4.47;2.40;;;16.80;98.00;;;;;;5044626;28;20497;-73
2021/08/31 07:38:07;;;;;;;2.33;1.90;;;16.80;98.00;;;;;;5031139;28;20516;-71
2021/08/31 07:40:34;;;;;;;1.73;1.43;;;16.90;98.00;;;;;;5030407;28;20485;-73
2021/08/31 07:43:01;;;;;;;2.07;1.57;;;17.00;98.00;;;;;;5031780;28;20494;-72
2021/08/31 07:45:30;;;;;;;2.20;1.47;;;17.00;98.00;;;;;;5031855;28;20548;-72
2021/08/31 07:47:57;;;;;;;1.63;1.57;;;16.90;98.00;;;;;;5031462;28;20517;-73
2021/08/31 07:50:24;;;;;;;2.57;2.07;;;17.10;98.00;;;;;;5031499;28;20960;-71
2021/08/31 07:52:52;;;;;;;2.40;1.90;;;17.20;98.00;;;;;;5031938;28;20497;-72
2021/08/31 07:55:20;;;;;;;3.53;2.07;;;17.30;98.00;;;;;;5031580;28;20547;-73
2021/08/31 07:57:48;;;;;;;3.37;2.33;;;17.40;98.00;;;;;;5030496;28;20646;-71
2021/08/31 08:00:18;;;;;;;1.30;1.17;;;17.50;98.00;;;;;;5031680;28;20454;-72
2021/08/31 08:02:46;;;;;;;1.60;1.37;;;17.70;98.00;;;;;;5031618;28;20451;-72
2021/08/31 08:05:13;;;;;;;2.47;1.73;;;17.90;98.00;;;;;;5031459;28;21022;-72
2021/08/31 08:07:41;;;;;;;1.50;1.50;;;18.10;98.00;;;;;;5030306;28;20458;-72
2021/08/31 08:10:09;;;;;;;1.63;1.50;;;18.30;98.00;;;;;;5031666;28;20528;-71
2021/08/31 08:12:36;;;;;;;2.23;1.80;;;18.40;98.00;;;;;;5031595;28;21019;-73
2021/08/31 08:15:04;;;;;;;1.67;1.50;;;18.40;98.00;;;;;;5030528;28;20490;-72
2021/08/31 08:17:31;;;;;;;1.77;1.53;;;18.40;98.00;;;;;;5031532;28;20486;-72
2021/08/31 08:19:59;;;;;;;1.50;1.50;;;18.50;98.00;;;;;;5031586;28;20467;-73
2021/08/31 08:22:28;;;;;;;2.00;1.83;;;18.50;98.00;;;;;;5031508;28;20455;-73
2021/08/31 08:24:56;;;;;;;1.73;1.67;;;18.40;98.00;;;;;;5031581;28;20458;-71
2021/08/31 08:27:23;;;;;;;2.20;1.50;;;18.40;98.00;;;;;;5031561;28;20466;-72
2021/08/31 08:29:50;;;;;;;1.77;1.50;;;18.40;98.00;;;;;;5031509;28;20512;-72
2021/08/31 08:32:17;;;;;;;1.60;1.40;;;18.30;98.00;;;;;;5030113;28;20470;-71
2021/08/31 08:34:44;;;;;;;1.73;1.33;;;18.20;98.00;;;;;;5031454;28;20512;-72
2021/08/31 08:37:13;;;;;;;1.77;1.60;;;18.20;98.00;;;;;;5032201;28;20516;-72
2021/08/31 08:39:41;;;;;;;2.70;1.90;;;18.10;98.00;;;;;;5035235;28;20541;-72
2021/08/31 08:42:09;;;;;;;1.50;1.30;;;18.10;98.00;;;;;;5035425;28;20469;-72
2021/08/31 08:44:36;;;;;;;1.63;1.43;;;18.10;98.00;;;;;;5035399;28;20463;-72
2021/08/31 08:47:04;;;;;;;2.40;1.40;;;18.00;98.00;;;;;;5035563;28;20490;-73
2021/08/31 08:49:31;;;;;;;3.23;1.67;;;18.00;98.00;;;;;;5034998;28;20458;-72
2021/08/31 08:52:01;;;;;;;2.27;1.63;;;18.00;98.00;;;;;;5035358;28;20960;-72
2021/08/31 08:54:29;;;;;;;1.40;1.37;;;18.00;98.00;;;;;;5035418;28;20871;-72
2021/08/31 08:56:59;;;;;;;1.33;1.17;;;18.00;98.00;;;;;;5034971;28;20529;-72
2021/08/31 08:59:26;;;;;;;2.83;1.47;;;18.00;98.00;;;;;;5033570;28;20516;-72
2021/08/31 09:01:55;;;;;;;1.20;1.10;;;18.20;98.00;;;;;;5035011;28;20497;-71
2021/08/31 09:04:43;;;;;;;2.87;1.80;;;18.20;98.00;;;;;;5034816;28;20462;-73
2021/08/31 09:07:21;;;;;;;1.80;1.63;;;18.30;98.00;;;;;;5034806;28;20546;-72
2021/08/31 09:09:51;;;;;;;2.23;1.60;;;18.20;98.00;;;;;;5034640;28;20516;-71
2021/08/31 09:12:33;;;;;;;1.60;1.37;;;18.20;98.00;;;;;;5034660;28;20488;-71
2021/08/31 09:15:25;;;;;;;1.83;1.40;;;18.20;98.00;;;;;;5034486;28;20975;-73
2021/08/31 09:18:16;;;;;;;2.33;1.77;;;18.10;98.00;;;;;;5034065;28;20533;-71
2021/08/31 09:20:47;;;;;;;1.50;1.40;;;18.20;98.00;;;;;;5034752;28;20513;-71
2021/08/31 09:23:20;;;;;;;1.60;1.57;;;18.20;98.00;;;;;;5034645;28;20458;-73
2021/08/31 09:25:51;;;;;;;1.43;1.40;;;18.20;98.00;;;;;;5034352;28;20459;-72
2021/08/31 09:28:27;;;;;;;1.80;1.30;;;18.20;98.00;;;;;;5034453;28;20493;-71
2021/08/31 09:31:01;;;;;;;2.07;1.40;;;18.20;98.00;;;;;;5034146;28;20809;-72
2021/08/31 09:33:31;;;;;;;1.37;1.30;;;18.30;98.00;;;;;;5034400;28;20528;-72
2021/08/31 09:36:07;;;;;;;2.10;1.57;;;18.40;98.00;;;;;;5034190;28;20585;-72
2021/08/31 09:38:47;;;;;;;1.70;1.33;;;18.40;98.00;;;;;;5033982;28;20481;-72
2021/08/31 09:41:41;;;;;;;1.67;1.50;;;18.50;98.00;;;;;;5034060;28;20512;-72
2021/08/31 09:44:11;;;;;;;1.77;1.53;;;18.40;98.00;;;;;;5034202;28;20459;-72
2021/08/31 09:46:49;;;;;;;1.63;1.40;;;18.50;98.00;;;;;;5033998;28;20443;-72
2021/08/31 09:49:21;;;;;;;2.43;1.70;;;18.50;98.00;;;;;;5034162;28;20509;-71
2021/08/31 09:52:04;;;;;;;1.40;1.30;;;18.50;98.00;;;;;;5034092;28;20489;-71
2021/08/31 09:54:31;;;;;;;1.60;1.50;;;18.40;98.00;;;;;;5037048;28;20547;-71
2021/08/31 09:57:00;;;;;;;2.10;1.70;;;18.40;98.00;;;;;;5049215;28;20572;-71
2021/08/31 09:59:27;;;;;;;1.47;1.33;;;18.30;98.00;;;;;;5044771;28;20463;-72
2021/08/31 10:01:54;;;;;;;1.63;1.47;;;18.20;98.00;;;;;;5043361;28;20536;-70
2021/08/31 10:04:21;;;;;;;2.53;1.40;;;18.10;98.00;;;;;;5047985;28;20454;-69
2021/08/31 10:06:49;;;;;;;1.57;1.53;;;18.00;98.00;;;;;;5049726;28;20462;-71
2021/08/31 10:09:18;;;;;;;1.20;1.20;;;18.00;98.00;;;;;;5050285;28;20454;-75
2021/08/31 10:11:45;;;;;;;1.20;1.20;;;18.00;98.00;;;;;;5049988;28;20462;-72
2021/08/31 10:14:18;;;;;;;1.77;1.60;;;18.00;98.00;;;;;;5049924;28;20461;-71
2021/08/31 10:16:45;;;;;;;1.50;1.40;;;18.10;98.00;;;;;;5036530;28;20463;-71
2021/08/31 10:19:14;;;;;;;1.40;1.30;;;18.20;98.00;;;;;;5032510;28;20942;-71
2021/08/31 10:21:42;;;;;;;1.50;1.20;;;18.20;98.00;;;;;;5032174;28;20463;-72
2021/08/31 10:24:10;;;;;;;1.33;1.20;;;18.30;98.00;;;;;;5043268;28;20472;-71
2021/08/31 10:26:38;;;;;;;1.80;1.43;;;18.30;98.00;;;;;;5039788;28;21028;-72
2021/08/31 10:29:29;;;;;;;2.07;1.53;;;18.30;98.00;;;;;;5036643;28;20455;-70
2021/08/31 10:31:59;;;;;;;1.30;1.30;;;18.50;98.00;;;;;;5033167;28;20475;-71
2021/08/31 10:34:45;;;;;;;2.33;1.57;;;18.50;98.00;;;;;;5049193;28;20457;-70
2021/08/31 10:37:15;;;;;;;1.60;1.40;;;18.70;98.00;;;;;;5051022;28;20995;-71
2021/08/31 10:39:46;;;;;;;1.70;1.40;;;18.70;98.00;;;;;;5032677;28;20462;-71
2021/08/31 10:42:38;;;;;;;1.60;1.50;;;18.80;98.00;;;;;;5032661;28;20498;-71
2021/08/31 10:45:30;;;;;;;1.90;1.60;;;18.90;98.00;;;;;;5045565;28;20454;-71
2021/08/31 10:47:59;;;;;;;1.20;1.20;;;19.10;98.00;;;;;;5038918;28;20893;-70
2021/08/31 10:50:27;;;;;;;1.43;1.33;;;19.70;98.00;;;;;;5045466;28;20468;-71
2021/08/31 10:53:03;;;;;;;2.47;1.70;;;20.10;98.00;;;;;;5033112;28;20885;-71
2021/08/31 10:55:45;;;;;;;1.20;1.20;;;20.30;98.00;;;;;;5039238;28;20540;-72
2021/08/31 10:58:15;;;;;;;8.93;2.13;;;20.40;98.00;;;;;;5030149;28;20863;-74
2021/08/31 11:00:54;;;;;;;1.47;1.30;;;20.40;98.00;;;;;;5035354;28;20885;-71
2021/08/31 11:03:37;;;;;;;1.90;1.50;;;20.90;98.00;;;;;;5040323;28;20465;-70
2021/08/31 11:06:27;;;;;;;1.50;1.40;;;21.20;98.00;;;;;;5039243;28;21633;-71
2021/08/31 11:09:22;;;;;;;2.40;1.37;;;21.30;98.00;;;;;;5032298;28;20463;-71
2021/08/31 11:12:16;;;;;;;1.63;1.40;;;21.10;98.00;;;;;;5051865;28;20470;-73
2021/08/31 11:14:55;;;;;;;1.30;1.30;;;21.00;98.00;;;;;;5052467;28;20449;-71
2021/08/31 11:17:31;;;;;;;1.97;1.50;;;20.90;98.00;;;;;;5052017;28;20477;-71
2021/08/31 11:20:20;;;;;;;1.60;1.33;;;20.80;98.00;;;;;;5052653;28;20457;-72
2021/08/31 11:22:50;;;;;;;1.87;1.57;;;20.60;98.00;;;;;;5052376;28;20466;-71
2021/08/31 11:25:18;;;;;;;2.00;1.63;;;20.60;98.00;;;;;;5052375;28;20586;-71
2021/08/31 11:27:52;;;;;;;2.00;1.90;;;20.50;98.00;;;;;;5052380;28;20492;-70
2021/08/31 11:30:20;;;;;;;1.70;1.40;;;20.40;98.00;;;;;;5052528;28;20450;-72
2021/08/31 11:32:48;;;;;;;2.03;1.30;;;20.20;98.00;;;;;;5052105;28;20631;-71
2021/08/31 11:35:19;;;;;;;2.80;1.50;;;20.20;98.00;;;;;;5051937;28;20485;-72
2021/08/31 11:37:50;;;;;;;1.50;1.40;;;20.30;98.00;;;;;;5050757;28;20488;-71
2021/08/31 11:43:07;;;;;;;1.93;1.60;;;20.20;98.00;;;;;;5051007;28;20458;-70
2021/08/31 11:45:40;;;;;;;2.03;1.40;;;20.30;98.00;;;;;;5051836;28;20462;-73
2021/08/31 11:48:09;;;;;;;2.93;1.40;;;20.60;98.00;;;;;;5050224;28;20539;-71
2021/08/31 11:50:37;;;;;;;2.37;1.40;;;20.70;98.00;;;;;;5051753;28;20484;-71
2021/08/31 11:53:18;;;;;;;1.90;1.50;;;20.90;98.00;;;;;;5051920;28;20504;-72
2021/08/31 11:55:55;;;;;;;1.40;1.37;;;20.70;98.00;;;;;;5051514;28;20457;-72
2021/08/31 11:58:22;;;;;;;1.60;1.40;;;20.50;98.00;;;;;;5051657;28;20562;-73
2021/08/31 12:00:49;;;;;;;1.70;1.40;;;20.30;98.00;;;;;;5051635;28;20534;-73
2021/08/31 12:03:26;;;;;;;1.43;1.30;;;20.30;98.00;;;;;;5051515;28;20462;-71
2021/08/31 12:05:58;;;;;;;1.80;1.43;;;20.30;98.00;;;;;;5051486;28;20461;-72
2021/08/31 12:08:29;;;;;;;2.03;1.57;;;20.30;98.00;;;;;;5051475;28;20457;-71
2021/08/31 12:10:57;;;;;;;1.60;1.50;;;20.40;98.00;;;;;;5051252;28;20520;-70
2021/08/31 12:13:25;;;;;;;1.67;1.40;;;20.30;98.00;;;;;;5050715;28;20450;-72
2021/08/31 12:15:57;;;;;;;1.60;1.40;;;20.40;98.00;;;;;;5051462;28;20489;-71
2021/08/31 12:18:27;;;;;;;1.70;1.33;;;20.50;98.00;;;;;;5051382;28;20486;-70
2021/08/31 12:21:14;;;;;;;2.50;1.60;;;20.50;98.00;;;;;;5050932;28;20472;-70
2021/08/31 12:23:42;;;;;;;1.63;1.40;;;20.70;98.00;;;;;;5050798;28;20465;-71
2021/08/31 12:26:09;;;;;;;1.57;1.50;;;20.90;98.00;;;;;;5049385;28;20533;-71
2021/08/31 12:28:37;;;;;;;2.20;1.97;;;21.00;98.00;;;;;;5050748;28;20822;-72
2021/08/31 12:31:11;;;;;;;1.63;1.60;;;21.20;98.00;;;;;;5049607;28;20458;-70
2021/08/31 12:33:39;;;;;;;1.87;1.50;;;21.70;98.00;;;;;;5051492;28;20465;-71
2021/08/31 12:36:09;;;;;;;1.90;1.80;;;21.80;98.00;;;;;;5051482;28;20960;-71
2021/08/31 12:38:38;;;;;;;1.73;1.63;;;21.80;98.00;;;;;;5051512;28;20482;-72
2021/08/31 12:41:09;;;;;;;1.83;1.47;;;21.70;98.00;;;;;;5051357;28;20460;-72
2021/08/31 12:43:48;;;;;;;1.57;1.43;;;21.40;98.00;;;;;;5051321;28;20493;-70
2021/08/31 12:46:22;;;;;;;1.83;1.60;;;21.10;98.00;;;;;;5051418;28;20462;-70
2021/08/31 12:49:01;;;;;;;1.83;1.60;;;21.00;98.00;;;;;;5051365;28;20525;-71
2021/08/31 12:51:33;;;;;;;1.37;1.33;;;20.80;98.00;;;;;;5051337;28;20501;-72
2021/08/31 12:54:00;;;;;;;1.37;1.30;;;20.70;98.00;;;;;;5051573;28;20508;-70
2021/08/31 12:56:28;;;;;;;1.60;1.50;;;20.60;98.00;;;;;;5050405;28;20972;-72
2021/08/31 12:59:03;;;;;;;1.60;1.53;;;20.40;98.00;;;;;;5051310;28;20584;-72
2021/08/31 13:01:31;;;;;;;1.70;1.40;;;20.30;98.00;;;;;;5051205;28;20978;-71